sensor_id;sensor_type;location;lat;lon;timestamp;P1;durP1;ratioP1;P2;durP2;ratioP2
65706;SDS011;52423;43.512;5.220;2022-07-21T00:01:25;17.17;;;8.90;;
65706;SDS011;52423;43.512;5.220;2022-07-21T00:03:50;15.63;;;8.82;;
65706;SDS011;52423;43.512;5.220;2022-07-21T00:06:16;13.85;;;8.93;;
65706;SDS011;52423;43.512;5.220;2022-07-21T00:08:42;14.13;;;8.75;;
65706;SDS011;52423;43.512;5.220;2022-07-21T00:11:07;15.23;;;8.73;;
65706;SDS011;52423;43.512;5.220;2022-07-21T00:13:33;21.85;;;9.27;;
65706;SDS011;52423;43.512;5.220;2022-07-21T00:15:59;17.02;;;8.98;;
65706;SDS011;52423;43.512;5.220;2022-07-21T00:18:25;20.85;;;9.68;;
65706;SDS011;52423;43.512;5.220;2022-07-21T00:20:56;12.05;;;8.80;;
65706;SDS011;52423;43.512;5.220;2022-07-21T00:23:23;12.40;;;9.45;;
65706;SDS011;52423;43.512;5.220;2022-07-21T00:25:49;13.10;;;8.55;;
65706;SDS011;52423;43.512;5.220;2022-07-21T00:28:16;10.57;;;8.68;;
65706;SDS011;52423;43.512;5.220;2022-07-21T00:30:43;13.00;;;8.93;;
65706;SDS011;52423;43.512;5.220;2022-07-21T00:33:08;15.25;;;8.73;;
65706;SDS011;52423;43.512;5.220;2022-07-21T00:35:34;14.07;;;9.23;;
65706;SDS011;52423;43.512;5.220;2022-07-21T00:38:00;13.10;;;8.75;;
65706;SDS011;52423;43.512;5.220;2022-07-21T00:40:26;13.93;;;9.57;;
65706;SDS011;52423;43.512;5.220;2022-07-21T00:42:52;11.98;;;8.13;;
65706;SDS011;52423;43.512;5.220;2022-07-21T00:45:18;18.67;;;8.50;;
65706;SDS011;52423;43.512;5.220;2022-07-21T00:47:44;12.23;;;8.85;;
65706;SDS011;52423;43.512;5.220;2022-07-21T00:50:14;14.20;;;8.70;;
65706;SDS011;52423;43.512;5.220;2022-07-21T00:52:44;12.68;;;8.43;;
65706;SDS011;52423;43.512;5.220;2022-07-21T00:55:11;17.70;;;8.82;;
65706;SDS011;52423;43.512;5.220;2022-07-21T00:57:38;11.02;;;8.80;;
65706;SDS011;52423;43.512;5.220;2022-07-21T01:00:05;14.70;;;8.77;;
65706;SDS011;52423;43.512;5.220;2022-07-21T01:02:34;19.55;;;9.38;;
65706;SDS011;52423;43.512;5.220;2022-07-21T01:05:05;11.35;;;9.10;;
65706;SDS011;52423;43.512;5.220;2022-07-21T01:07:34;12.95;;;8.73;;
65706;SDS011;52423;43.512;5.220;2022-07-21T01:10:00;15.57;;;9.15;;
65706;SDS011;52423;43.512;5.220;2022-07-21T01:12:26;18.25;;;9.02;;
65706;SDS011;52423;43.512;5.220;2022-07-21T01:14:52;15.75;;;9.18;;
65706;SDS011;52423;43.512;5.220;2022-07-21T01:17:18;14.30;;;8.65;;
65706;SDS011;52423;43.512;5.220;2022-07-21T01:19:43;10.85;;;8.82;;
65706;SDS011;52423;43.512;5.220;2022-07-21T01:22:09;14.38;;;8.85;;
65706;SDS011;52423;43.512;5.220;2022-07-21T01:24:36;11.07;;;8.57;;
65706;SDS011;52423;43.512;5.220;2022-07-21T01:27:02;12.75;;;9.13;;
65706;SDS011;52423;43.512;5.220;2022-07-21T01:29:27;11.73;;;8.52;;
65706;SDS011;52423;43.512;5.220;2022-07-21T01:31:53;20.40;;;9.38;;
65706;SDS011;52423;43.512;5.220;2022-07-21T01:34:19;13.27;;;8.75;;
65706;SDS011;52423;43.512;5.220;2022-07-21T01:36:45;11.15;;;8.80;;
65706;SDS011;52423;43.512;5.220;2022-07-21T01:39:11;13.80;;;9.48;;
65706;SDS011;52423;43.512;5.220;2022-07-21T01:41:56;15.23;;;9.30;;
65706;SDS011;52423;43.512;5.220;2022-07-21T01:44:22;15.13;;;8.95;;
65706;SDS011;52423;43.512;5.220;2022-07-21T01:46:49;13.70;;;8.95;;
65706;SDS011;52423;43.512;5.220;2022-07-21T01:49:17;15.20;;;8.75;;
65706;SDS011;52423;43.512;5.220;2022-07-21T01:51:44;16.70;;;9.20;;
65706;SDS011;52423;43.512;5.220;2022-07-21T01:54:11;13.93;;;9.13;;
65706;SDS011;52423;43.512;5.220;2022-07-21T01:56:38;14.55;;;9.60;;
65706;SDS011;52423;43.512;5.220;2022-07-21T01:59:04;16.15;;;8.82;;
65706;SDS011;52423;43.512;5.220;2022-07-21T02:01:31;21.55;;;9.90;;
65706;SDS011;52423;43.512;5.220;2022-07-21T02:03:58;16.88;;;9.93;;
65706;SDS011;52423;43.512;5.220;2022-07-21T02:06:25;15.52;;;8.85;;
65706;SDS011;52423;43.512;5.220;2022-07-21T02:08:51;15.52;;;9.82;;
65706;SDS011;52423;43.512;5.220;2022-07-21T02:11:17;12.93;;;9.25;;
65706;SDS011;52423;43.512;5.220;2022-07-21T02:13:44;13.27;;;9.35;;
65706;SDS011;52423;43.512;5.220;2022-07-21T02:16:10;15.90;;;9.25;;
65706;SDS011;52423;43.512;5.220;2022-07-21T02:18:36;16.42;;;9.25;;
65706;SDS011;52423;43.512;5.220;2022-07-21T02:21:03;17.55;;;9.48;;
65706;SDS011;52423;43.512;5.220;2022-07-21T02:23:29;14.30;;;8.90;;
65706;SDS011;52423;43.512;5.220;2022-07-21T02:25:56;14.63;;;9.60;;
65706;SDS011;52423;43.512;5.220;2022-07-21T02:28:22;13.95;;;8.98;;
65706;SDS011;52423;43.512;5.220;2022-07-21T02:30:48;15.48;;;9.65;;
65706;SDS011;52423;43.512;5.220;2022-07-21T02:33:15;12.02;;;9.50;;
65706;SDS011;52423;43.512;5.220;2022-07-21T02:35:41;11.55;;;9.40;;
65706;SDS011;52423;43.512;5.220;2022-07-21T02:38:07;13.77;;;8.55;;
65706;SDS011;52423;43.512;5.220;2022-07-21T02:40:33;13.40;;;9.20;;
65706;SDS011;52423;43.512;5.220;2022-07-21T02:42:59;17.33;;;9.15;;
65706;SDS011;52423;43.512;5.220;2022-07-21T02:45:25;13.27;;;9.85;;
65706;SDS011;52423;43.512;5.220;2022-07-21T02:47:53;11.73;;;9.40;;
65706;SDS011;52423;43.512;5.220;2022-07-21T02:50:24;12.25;;;9.50;;
65706;SDS011;52423;43.512;5.220;2022-07-21T02:52:53;14.57;;;9.32;;
65706;SDS011;52423;43.512;5.220;2022-07-21T02:55:21;13.23;;;9.52;;
65706;SDS011;52423;43.512;5.220;2022-07-21T02:57:47;12.65;;;9.38;;
65706;SDS011;52423;43.512;5.220;2022-07-21T03:00:12;16.20;;;9.10;;
65706;SDS011;52423;43.512;5.220;2022-07-21T03:02:40;15.50;;;9.13;;
65706;SDS011;52423;43.512;5.220;2022-07-21T03:05:06;16.75;;;10.15;;
65706;SDS011;52423;43.512;5.220;2022-07-21T03:07:32;21.05;;;10.27;;
65706;SDS011;52423;43.512;5.220;2022-07-21T03:09:58;15.32;;;9.65;;
65706;SDS011;52423;43.512;5.220;2022-07-21T03:12:24;20.20;;;10.10;;
65706;SDS011;52423;43.512;5.220;2022-07-21T03:14:49;20.88;;;10.25;;
65706;SDS011;52423;43.512;5.220;2022-07-21T03:17:15;11.60;;;9.27;;
65706;SDS011;52423;43.512;5.220;2022-07-21T03:19:41;12.88;;;9.45;;
65706;SDS011;52423;43.512;5.220;2022-07-21T03:22:06;11.88;;;9.70;;
65706;SDS011;52423;43.512;5.220;2022-07-21T03:24:32;14.10;;;10.15;;
65706;SDS011;52423;43.512;5.220;2022-07-21T03:26:58;21.40;;;10.02;;
65706;SDS011;52423;43.512;5.220;2022-07-21T03:29:23;13.07;;;9.68;;
65706;SDS011;52423;43.512;5.220;2022-07-21T03:31:49;18.83;;;10.15;;
65706;SDS011;52423;43.512;5.220;2022-07-21T03:34:15;16.42;;;9.73;;
65706;SDS011;52423;43.512;5.220;2022-07-21T03:36:40;14.48;;;9.63;;
65706;SDS011;52423;43.512;5.220;2022-07-21T03:39:06;14.57;;;10.18;;
65706;SDS011;52423;43.512;5.220;2022-07-21T03:41:32;14.13;;;9.32;;
65706;SDS011;52423;43.512;5.220;2022-07-21T03:43:58;18.73;;;10.35;;
65706;SDS011;52423;43.512;5.220;2022-07-21T03:46:24;18.08;;;10.27;;
65706;SDS011;52423;43.512;5.220;2022-07-21T03:48:49;13.48;;;9.82;;
65706;SDS011;52423;43.512;5.220;2022-07-21T03:51:15;19.50;;;10.57;;
65706;SDS011;52423;43.512;5.220;2022-07-21T03:53:41;13.15;;;9.32;;
65706;SDS011;52423;43.512;5.220;2022-07-21T03:56:06;17.80;;;10.30;;
65706;SDS011;52423;43.512;5.220;2022-07-21T03:58:32;19.95;;;10.27;;
65706;SDS011;52423;43.512;5.220;2022-07-21T04:00:58;36.00;;;10.52;;
65706;SDS011;52423;43.512;5.220;2022-07-21T04:03:23;20.65;;;9.77;;
65706;SDS011;52423;43.512;5.220;2022-07-21T04:05:49;16.60;;;10.38;;
65706;SDS011;52423;43.512;5.220;2022-07-21T04:08:15;19.73;;;9.77;;
65706;SDS011;52423;43.512;5.220;2022-07-21T04:10:41;20.20;;;9.98;;
65706;SDS011;52423;43.512;5.220;2022-07-21T04:13:09;14.75;;;9.32;;
65706;SDS011;52423;43.512;5.220;2022-07-21T04:15:38;13.15;;;9.27;;
65706;SDS011;52423;43.512;5.220;2022-07-21T04:18:05;13.95;;;8.90;;
65706;SDS011;52423;43.512;5.220;2022-07-21T04:20:32;12.48;;;9.20;;
65706;SDS011;52423;43.512;5.220;2022-07-21T04:23:17;15.55;;;9.70;;
65706;SDS011;52423;43.512;5.220;2022-07-21T04:26:03;22.08;;;9.65;;
65706;SDS011;52423;43.512;5.220;2022-07-21T04:28:48;10.20;;;8.73;;
65706;SDS011;52423;43.512;5.220;2022-07-21T04:31:33;16.67;;;10.07;;
65706;SDS011;52423;43.512;5.220;2022-07-21T04:34:00;14.07;;;8.98;;
65706;SDS011;52423;43.512;5.220;2022-07-21T04:36:25;18.70;;;9.23;;
65706;SDS011;52423;43.512;5.220;2022-07-21T04:38:51;15.18;;;9.02;;
65706;SDS011;52423;43.512;5.220;2022-07-21T04:41:17;11.95;;;9.10;;
65706;SDS011;52423;43.512;5.220;2022-07-21T04:43:42;20.17;;;9.80;;
65706;SDS011;52423;43.512;5.220;2022-07-21T04:46:08;17.35;;;9.23;;
65706;SDS011;52423;43.512;5.220;2022-07-21T04:48:34;14.70;;;9.70;;
65706;SDS011;52423;43.512;5.220;2022-07-21T04:50:59;13.30;;;9.35;;
65706;SDS011;52423;43.512;5.220;2022-07-21T04:53:25;15.20;;;9.57;;
65706;SDS011;52423;43.512;5.220;2022-07-21T04:55:51;14.23;;;8.90;;
65706;SDS011;52423;43.512;5.220;2022-07-21T04:58:16;21.30;;;9.88;;
65706;SDS011;52423;43.512;5.220;2022-07-21T05:00:42;16.67;;;9.32;;
65706;SDS011;52423;43.512;5.220;2022-07-21T05:03:08;13.82;;;9.82;;
65706;SDS011;52423;43.512;5.220;2022-07-21T05:05:33;18.90;;;9.60;;
65706;SDS011;52423;43.512;5.220;2022-07-21T05:07:59;20.00;;;9.07;;
65706;SDS011;52423;43.512;5.220;2022-07-21T05:10:25;16.27;;;8.75;;
65706;SDS011;52423;43.512;5.220;2022-07-21T05:12:50;15.75;;;8.60;;
65706;SDS011;52423;43.512;5.220;2022-07-21T05:15:16;12.57;;;8.40;;
65706;SDS011;52423;43.512;5.220;2022-07-21T05:17:43;15.15;;;8.82;;
65706;SDS011;52423;43.512;5.220;2022-07-21T05:20:09;14.40;;;8.38;;
65706;SDS011;52423;43.512;5.220;2022-07-21T05:22:36;16.13;;;7.60;;
65706;SDS011;52423;43.512;5.220;2022-07-21T05:25:02;12.98;;;8.27;;
65706;SDS011;52423;43.512;5.220;2022-07-21T05:27:28;13.70;;;9.32;;
65706;SDS011;52423;43.512;5.220;2022-07-21T05:29:54;15.50;;;8.32;;
65706;SDS011;52423;43.512;5.220;2022-07-21T05:32:21;22.08;;;8.27;;
65706;SDS011;52423;43.512;5.220;2022-07-21T05:34:46;16.33;;;8.55;;
65706;SDS011;52423;43.512;5.220;2022-07-21T05:37:12;21.38;;;8.25;;
65706;SDS011;52423;43.512;5.220;2022-07-21T05:39:38;14.63;;;8.23;;
65706;SDS011;52423;43.512;5.220;2022-07-21T05:42:04;17.35;;;8.52;;
65706;SDS011;52423;43.512;5.220;2022-07-21T05:44:30;12.48;;;7.47;;
65706;SDS011;52423;43.512;5.220;2022-07-21T05:46:55;16.15;;;8.65;;
65706;SDS011;52423;43.512;5.220;2022-07-21T05:49:21;19.10;;;8.43;;
65706;SDS011;52423;43.512;5.220;2022-07-21T05:51:47;11.13;;;8.75;;
65706;SDS011;52423;43.512;5.220;2022-07-21T05:54:13;17.88;;;8.13;;
65706;SDS011;52423;43.512;5.220;2022-07-21T05:56:38;18.08;;;8.30;;
65706;SDS011;52423;43.512;5.220;2022-07-21T05:59:04;15.18;;;7.97;;
65706;SDS011;52423;43.512;5.220;2022-07-21T06:01:29;16.20;;;7.75;;
65706;SDS011;52423;43.512;5.220;2022-07-21T06:03:55;15.50;;;8.68;;
65706;SDS011;52423;43.512;5.220;2022-07-21T06:06:21;9.98;;;7.40;;
65706;SDS011;52423;43.512;5.220;2022-07-21T06:08:48;15.02;;;8.13;;
65706;SDS011;52423;43.512;5.220;2022-07-21T06:11:15;14.40;;;8.00;;
65706;SDS011;52423;43.512;5.220;2022-07-21T06:13:42;10.02;;;7.80;;
65706;SDS011;52423;43.512;5.220;2022-07-21T06:16:09;12.18;;;7.10;;
65706;SDS011;52423;43.512;5.220;2022-07-21T06:18:35;16.25;;;7.90;;
65706;SDS011;52423;43.512;5.220;2022-07-21T06:21:01;11.73;;;7.25;;
65706;SDS011;52423;43.512;5.220;2022-07-21T06:23:28;8.90;;;7.55;;
65706;SDS011;52423;43.512;5.220;2022-07-21T06:25:54;10.02;;;7.13;;
65706;SDS011;52423;43.512;5.220;2022-07-21T06:28:20;11.00;;;8.07;;
65706;SDS011;52423;43.512;5.220;2022-07-21T06:30:46;10.43;;;7.22;;
65706;SDS011;52423;43.512;5.220;2022-07-21T06:33:13;10.02;;;7.35;;
65706;SDS011;52423;43.512;5.220;2022-07-21T06:35:38;12.55;;;7.35;;
65706;SDS011;52423;43.512;5.220;2022-07-21T06:38:04;13.25;;;7.60;;
65706;SDS011;52423;43.512;5.220;2022-07-21T06:40:30;14.75;;;7.35;;
65706;SDS011;52423;43.512;5.220;2022-07-21T06:42:56;13.88;;;7.70;;
65706;SDS011;52423;43.512;5.220;2022-07-21T06:45:22;13.63;;;7.78;;
65706;SDS011;52423;43.512;5.220;2022-07-21T06:47:48;14.50;;;7.18;;
65706;SDS011;52423;43.512;5.220;2022-07-21T06:50:15;17.88;;;7.53;;
65706;SDS011;52423;43.512;5.220;2022-07-21T06:52:40;10.27;;;7.88;;
65706;SDS011;52423;43.512;5.220;2022-07-21T06:55:06;10.50;;;7.57;;
65706;SDS011;52423;43.512;5.220;2022-07-21T06:57:36;11.00;;;7.93;;
65706;SDS011;52423;43.512;5.220;2022-07-21T07:00:04;9.02;;;6.95;;
65706;SDS011;52423;43.512;5.220;2022-07-21T07:02:33;12.60;;;8.18;;
65706;SDS011;52423;43.512;5.220;2022-07-21T07:04:59;13.25;;;7.60;;
65706;SDS011;52423;43.512;5.220;2022-07-21T07:07:24;20.08;;;8.07;;
65706;SDS011;52423;43.512;5.220;2022-07-21T07:09:50;10.20;;;7.45;;
65706;SDS011;52423;43.512;5.220;2022-07-21T07:12:16;11.73;;;7.70;;
65706;SDS011;52423;43.512;5.220;2022-07-21T07:14:41;11.00;;;7.07;;
65706;SDS011;52423;43.512;5.220;2022-07-21T07:17:07;13.02;;;7.65;;
65706;SDS011;52423;43.512;5.220;2022-07-21T07:19:33;24.13;;;7.03;;
65706;SDS011;52423;43.512;5.220;2022-07-21T07:21:59;12.25;;;6.82;;
65706;SDS011;52423;43.512;5.220;2022-07-21T07:24:25;16.08;;;7.20;;
65706;SDS011;52423;43.512;5.220;2022-07-21T07:26:50;14.40;;;7.75;;
65706;SDS011;52423;43.512;5.220;2022-07-21T07:29:16;15.88;;;7.68;;
65706;SDS011;52423;43.512;5.220;2022-07-21T07:31:42;12.43;;;7.30;;
65706;SDS011;52423;43.512;5.220;2022-07-21T07:34:07;12.88;;;7.32;;
65706;SDS011;52423;43.512;5.220;2022-07-21T07:36:34;20.92;;;7.85;;
65706;SDS011;52423;43.512;5.220;2022-07-21T07:39:01;13.98;;;7.03;;
65706;SDS011;52423;43.512;5.220;2022-07-21T07:41:29;10.00;;;6.70;;
65706;SDS011;52423;43.512;5.220;2022-07-21T07:43:57;11.32;;;7.07;;
65706;SDS011;52423;43.512;5.220;2022-07-21T07:46:25;22.08;;;7.35;;
65706;SDS011;52423;43.512;5.220;2022-07-21T07:48:51;15.80;;;6.85;;
65706;SDS011;52423;43.512;5.220;2022-07-21T07:51:17;9.02;;;6.93;;
65706;SDS011;52423;43.512;5.220;2022-07-21T07:53:42;12.48;;;7.05;;
65706;SDS011;52423;43.512;5.220;2022-07-21T07:56:08;14.38;;;7.38;;
65706;SDS011;52423;43.512;5.220;2022-07-21T07:58:34;11.02;;;6.55;;
65706;SDS011;52423;43.512;5.220;2022-07-21T08:01:00;13.85;;;6.93;;
65706;SDS011;52423;43.512;5.220;2022-07-21T08:03:26;11.98;;;6.20;;
65706;SDS011;52423;43.512;5.220;2022-07-21T08:05:53;13.20;;;6.85;;
65706;SDS011;52423;43.512;5.220;2022-07-21T08:08:20;8.98;;;6.80;;
65706;SDS011;52423;43.512;5.220;2022-07-21T08:10:46;11.18;;;7.22;;
65706;SDS011;52423;43.512;5.220;2022-07-21T08:13:13;9.48;;;6.75;;
65706;SDS011;52423;43.512;5.220;2022-07-21T08:15:41;18.38;;;6.53;;
65706;SDS011;52423;43.512;5.220;2022-07-21T08:18:07;15.82;;;6.80;;
65706;SDS011;52423;43.512;5.220;2022-07-21T08:20:34;14.70;;;6.95;;
65706;SDS011;52423;43.512;5.220;2022-07-21T08:23:00;27.05;;;7.68;;
65706;SDS011;52423;43.512;5.220;2022-07-21T08:25:26;9.63;;;6.32;;
65706;SDS011;52423;43.512;5.220;2022-07-21T08:27:52;12.45;;;6.60;;
65706;SDS011;52423;43.512;5.220;2022-07-21T08:30:17;13.55;;;7.32;;
65706;SDS011;52423;43.512;5.220;2022-07-21T08:32:43;11.57;;;7.20;;
65706;SDS011;52423;43.512;5.220;2022-07-21T08:35:09;14.30;;;6.35;;
65706;SDS011;52423;43.512;5.220;2022-07-21T08:37:35;10.10;;;6.25;;
65706;SDS011;52423;43.512;5.220;2022-07-21T08:40:06;11.75;;;6.15;;
65706;SDS011;52423;43.512;5.220;2022-07-21T08:42:33;11.73;;;6.28;;
65706;SDS011;52423;43.512;5.220;2022-07-21T08:44:59;11.43;;;6.40;;
65706;SDS011;52423;43.512;5.220;2022-07-21T08:47:26;16.23;;;6.22;;
65706;SDS011;52423;43.512;5.220;2022-07-21T08:49:53;12.63;;;6.90;;
65706;SDS011;52423;43.512;5.220;2022-07-21T08:52:19;12.30;;;6.40;;
65706;SDS011;52423;43.512;5.220;2022-07-21T08:54:45;8.73;;;6.38;;
65706;SDS011;52423;43.512;5.220;2022-07-21T08:57:11;17.08;;;6.38;;
65706;SDS011;52423;43.512;5.220;2022-07-21T08:59:37;13.45;;;6.57;;
65706;SDS011;52423;43.512;5.220;2022-07-21T09:02:03;15.57;;;6.88;;
65706;SDS011;52423;43.512;5.220;2022-07-21T09:04:30;14.90;;;6.75;;
65706;SDS011;52423;43.512;5.220;2022-07-21T09:07:05;12.93;;;6.65;;
65706;SDS011;52423;43.512;5.220;2022-07-21T09:09:32;12.90;;;6.10;;
65706;SDS011;52423;43.512;5.220;2022-07-21T09:12:00;9.32;;;6.43;;
65706;SDS011;52423;43.512;5.220;2022-07-21T09:14:29;12.25;;;6.10;;
65706;SDS011;52423;43.512;5.220;2022-07-21T09:16:58;11.70;;;6.13;;
65706;SDS011;52423;43.512;5.220;2022-07-21T09:19:26;11.05;;;5.97;;
65706;SDS011;52423;43.512;5.220;2022-07-21T09:29:26;10.30;;;6.35;;
65706;SDS011;52423;43.512;5.220;2022-07-21T09:32:11;15.77;;;6.60;;
65706;SDS011;52423;43.512;5.220;2022-07-21T09:34:38;9.63;;;6.50;;
65706;SDS011;52423;43.512;5.220;2022-07-21T09:37:05;10.13;;;6.53;;
65706;SDS011;52423;43.512;5.220;2022-07-21T09:39:42;8.10;;;6.05;;
65706;SDS011;52423;43.512;5.220;2022-07-21T09:44:43;12.52;;;6.20;;
65706;SDS011;52423;43.512;5.220;2022-07-21T09:47:14;15.18;;;6.05;;
65706;SDS011;52423;43.512;5.220;2022-07-21T09:49:41;8.40;;;5.63;;
65706;SDS011;52423;43.512;5.220;2022-07-21T09:54:57;14.32;;;6.07;;
65706;SDS011;52423;43.512;5.220;2022-07-21T09:57:28;12.13;;;6.60;;
65706;SDS011;52423;43.512;5.220;2022-07-21T09:59:55;11.30;;;6.25;;
65706;SDS011;52423;43.512;5.220;2022-07-21T10:02:23;9.48;;;5.88;;
65706;SDS011;52423;43.512;5.220;2022-07-21T10:05:00;9.57;;;6.30;;
65706;SDS011;52423;43.512;5.220;2022-07-21T10:07:29;7.55;;;5.72;;
65706;SDS011;52423;43.512;5.220;2022-07-21T10:09:56;7.32;;;5.65;;
65706;SDS011;52423;43.512;5.220;2022-07-21T10:12:22;9.70;;;6.00;;
65706;SDS011;52423;43.512;5.220;2022-07-21T10:14:49;13.18;;;6.35;;
65706;SDS011;52423;43.512;5.220;2022-07-21T10:17:15;8.30;;;6.28;;
65706;SDS011;52423;43.512;5.220;2022-07-21T10:25:28;9.35;;;5.95;;
65706;SDS011;52423;43.512;5.220;2022-07-21T10:30:39;7.60;;;6.03;;
65706;SDS011;52423;43.512;5.220;2022-07-21T10:33:09;8.68;;;5.88;;
65706;SDS011;52423;43.512;5.220;2022-07-21T10:35:39;11.20;;;5.78;;
65706;SDS011;52423;43.512;5.220;2022-07-21T10:40:56;13.73;;;5.68;;
65706;SDS011;52423;43.512;5.220;2022-07-21T10:45:49;6.25;;;5.07;;
65706;SDS011;52423;43.512;5.220;2022-07-21T10:51:09;7.50;;;5.10;;
65706;SDS011;52423;43.512;5.220;2022-07-21T10:53:36;7.93;;;4.65;;
65706;SDS011;52423;43.512;5.220;2022-07-21T10:56:03;7.13;;;5.00;;
65706;SDS011;52423;43.512;5.220;2022-07-21T10:58:30;12.93;;;5.35;;
65706;SDS011;52423;43.512;5.220;2022-07-21T11:03:28;9.90;;;5.10;;
65706;SDS011;52423;43.512;5.220;2022-07-21T11:11:11;8.57;;;4.60;;
65706;SDS011;52423;43.512;5.220;2022-07-21T11:19:31;10.38;;;4.65;;
65706;SDS011;52423;43.512;5.220;2022-07-21T11:22:05;8.85;;;4.35;;
65706;SDS011;52423;43.512;5.220;2022-07-21T11:24:36;8.23;;;4.75;;
65706;SDS011;52423;43.512;5.220;2022-07-21T11:29:30;7.57;;;4.30;;
65706;SDS011;52423;43.512;5.220;2022-07-21T11:31:57;6.28;;;4.07;;
65706;SDS011;52423;43.512;5.220;2022-07-21T11:34:43;9.20;;;4.25;;
65706;SDS011;52423;43.512;5.220;2022-07-21T11:37:12;7.40;;;4.10;;
65706;SDS011;52423;43.512;5.220;2022-07-21T11:39:42;9.48;;;3.90;;
65706;SDS011;52423;43.512;5.220;2022-07-21T11:42:09;5.15;;;4.03;;
65706;SDS011;52423;43.512;5.220;2022-07-21T11:44:38;9.38;;;4.78;;
65706;SDS011;52423;43.512;5.220;2022-07-21T11:47:06;8.13;;;4.00;;
65706;SDS011;52423;43.512;5.220;2022-07-21T11:49:34;7.78;;;4.22;;
65706;SDS011;52423;43.512;5.220;2022-07-21T11:52:01;7.47;;;4.20;;
65706;SDS011;52423;43.512;5.220;2022-07-21T11:57:08;5.93;;;3.72;;
65706;SDS011;52423;43.512;5.220;2022-07-21T11:59:35;4.30;;;3.90;;
65706;SDS011;52423;43.512;5.220;2022-07-21T12:02:04;5.72;;;4.00;;
65706;SDS011;52423;43.512;5.220;2022-07-21T12:07:02;4.25;;;3.80;;
65706;SDS011;52423;43.512;5.220;2022-07-21T12:09:29;5.28;;;4.20;;
65706;SDS011;52423;43.512;5.220;2022-07-21T12:11:56;8.65;;;3.70;;
65706;SDS011;52423;43.512;5.220;2022-07-21T12:14:38;7.75;;;4.10;;
65706;SDS011;52423;43.512;5.220;2022-07-21T12:17:04;5.47;;;3.95;;
65706;SDS011;52423;43.512;5.220;2022-07-21T12:19:30;7.85;;;3.58;;
65706;SDS011;52423;43.512;5.220;2022-07-21T12:21:56;4.60;;;3.47;;
65706;SDS011;52423;43.512;5.220;2022-07-21T12:24:22;6.70;;;3.63;;
65706;SDS011;52423;43.512;5.220;2022-07-21T12:27:11;4.47;;;3.95;;
65706;SDS011;52423;43.512;5.220;2022-07-21T12:29:37;8.80;;;3.97;;
65706;SDS011;52423;43.512;5.220;2022-07-21T12:32:03;5.80;;;3.90;;
65706;SDS011;52423;43.512;5.220;2022-07-21T12:34:28;8.15;;;3.72;;
65706;SDS011;52423;43.512;5.220;2022-07-21T12:36:54;7.53;;;4.05;;
65706;SDS011;52423;43.512;5.220;2022-07-21T12:39:22;7.90;;;4.00;;
65706;SDS011;52423;43.512;5.220;2022-07-21T12:42:09;4.32;;;3.92;;
65706;SDS011;52423;43.512;5.220;2022-07-21T12:44:37;8.40;;;3.70;;
65706;SDS011;52423;43.512;5.220;2022-07-21T12:47:13;3.97;;;3.58;;
65706;SDS011;52423;43.512;5.220;2022-07-21T12:50:03;3.65;;;3.15;;
65706;SDS011;52423;43.512;5.220;2022-07-21T12:52:32;4.60;;;3.60;;
65706;SDS011;52423;43.512;5.220;2022-07-21T12:54:58;5.13;;;3.90;;
65706;SDS011;52423;43.512;5.220;2022-07-21T12:57:26;6.15;;;4.13;;
65706;SDS011;52423;43.512;5.220;2022-07-21T12:59:58;4.57;;;3.55;;
65706;SDS011;52423;43.512;5.220;2022-07-21T13:02:24;5.70;;;3.90;;
65706;SDS011;52423;43.512;5.220;2022-07-21T13:04:51;4.90;;;3.90;;
65706;SDS011;52423;43.512;5.220;2022-07-21T13:07:19;4.15;;;3.75;;
65706;SDS011;52423;43.512;5.220;2022-07-21T13:09:45;9.15;;;3.70;;
65706;SDS011;52423;43.512;5.220;2022-07-21T13:12:14;7.10;;;3.50;;
65706;SDS011;52423;43.512;5.220;2022-07-21T13:14:40;8.73;;;3.40;;
65706;SDS011;52423;43.512;5.220;2022-07-21T13:17:07;7.07;;;3.60;;
65706;SDS011;52423;43.512;5.220;2022-07-21T13:19:33;3.70;;;3.33;;
65706;SDS011;52423;43.512;5.220;2022-07-21T13:22:02;7.00;;;3.38;;
65706;SDS011;52423;43.512;5.220;2022-07-21T13:24:29;4.30;;;3.75;;
65706;SDS011;52423;43.512;5.220;2022-07-21T13:26:55;12.23;;;4.40;;
65706;SDS011;52423;43.512;5.220;2022-07-21T13:29:20;7.53;;;3.80;;
65706;SDS011;52423;43.512;5.220;2022-07-21T13:31:46;13.90;;;4.00;;
65706;SDS011;52423;43.512;5.220;2022-07-21T13:34:12;7.60;;;3.80;;
65706;SDS011;52423;43.512;5.220;2022-07-21T13:36:38;5.70;;;3.50;;
65706;SDS011;52423;43.512;5.220;2022-07-21T13:39:04;8.73;;;3.90;;
65706;SDS011;52423;43.512;5.220;2022-07-21T13:41:31;7.20;;;3.90;;
65706;SDS011;52423;43.512;5.220;2022-07-21T13:43:58;5.13;;;3.47;;
65706;SDS011;52423;43.512;5.220;2022-07-21T13:46:24;8.18;;;3.70;;
65706;SDS011;52423;43.512;5.220;2022-07-21T13:48:51;10.32;;;3.70;;
65706;SDS011;52423;43.512;5.220;2022-07-21T13:51:17;7.78;;;3.28;;
65706;SDS011;52423;43.512;5.220;2022-07-21T13:53:44;7.18;;;3.50;;
65706;SDS011;52423;43.512;5.220;2022-07-21T13:56:11;5.50;;;3.55;;
65706;SDS011;52423;43.512;5.220;2022-07-21T13:58:39;12.13;;;3.97;;
65706;SDS011;52423;43.512;5.220;2022-07-21T14:01:05;10.43;;;3.92;;
65706;SDS011;52423;43.512;5.220;2022-07-21T14:03:33;5.03;;;3.15;;
65706;SDS011;52423;43.512;5.220;2022-07-21T14:06:00;9.18;;;3.65;;
65706;SDS011;52423;43.512;5.220;2022-07-21T14:08:26;6.32;;;3.90;;
65706;SDS011;52423;43.512;5.220;2022-07-21T14:10:52;8.35;;;3.30;;
65706;SDS011;52423;43.512;5.220;2022-07-21T14:13:18;5.93;;;3.72;;
65706;SDS011;52423;43.512;5.220;2022-07-21T14:15:44;7.75;;;3.83;;
65706;SDS011;52423;43.512;5.220;2022-07-21T14:18:10;6.28;;;3.70;;
65706;SDS011;52423;43.512;5.220;2022-07-21T14:20:35;6.43;;;3.35;;
65706;SDS011;52423;43.512;5.220;2022-07-21T14:23:02;8.95;;;3.90;;
65706;SDS011;52423;43.512;5.220;2022-07-21T14:25:28;9.10;;;4.13;;
65706;SDS011;52423;43.512;5.220;2022-07-21T14:27:55;9.85;;;3.80;;
65706;SDS011;52423;43.512;5.220;2022-07-21T14:30:23;7.50;;;3.47;;
65706;SDS011;52423;43.512;5.220;2022-07-21T14:32:50;5.90;;;3.40;;
65706;SDS011;52423;43.512;5.220;2022-07-21T14:35:16;5.72;;;3.22;;
65706;SDS011;52423;43.512;5.220;2022-07-21T14:37:44;5.70;;;3.30;;
65706;SDS011;52423;43.512;5.220;2022-07-21T14:40:11;3.88;;;2.88;;
65706;SDS011;52423;43.512;5.220;2022-07-21T14:42:38;3.78;;;3.10;;
65706;SDS011;52423;43.512;5.220;2022-07-21T14:45:05;3.58;;;3.10;;
65706;SDS011;52423;43.512;5.220;2022-07-21T14:47:31;5.88;;;2.97;;
65706;SDS011;52423;43.512;5.220;2022-07-21T14:49:58;11.25;;;3.05;;
65706;SDS011;52423;43.512;5.220;2022-07-21T14:52:25;4.05;;;3.10;;
65706;SDS011;52423;43.512;5.220;2022-07-21T14:54:51;3.63;;;2.95;;
65706;SDS011;52423;43.512;5.220;2022-07-21T14:57:16;5.70;;;2.92;;
65706;SDS011;52423;43.512;5.220;2022-07-21T14:59:42;11.38;;;3.35;;
65706;SDS011;52423;43.512;5.220;2022-07-21T15:02:08;6.25;;;3.40;;
65706;SDS011;52423;43.512;5.220;2022-07-21T15:04:33;6.05;;;3.13;;
65706;SDS011;52423;43.512;5.220;2022-07-21T15:06:59;11.80;;;3.17;;
65706;SDS011;52423;43.512;5.220;2022-07-21T15:09:25;3.15;;;2.67;;
65706;SDS011;52423;43.512;5.220;2022-07-21T15:11:51;8.38;;;3.00;;
65706;SDS011;52423;43.512;5.220;2022-07-21T15:14:16;3.92;;;2.55;;
65706;SDS011;52423;43.512;5.220;2022-07-21T15:16:42;6.85;;;3.08;;
65706;SDS011;52423;43.512;5.220;2022-07-21T15:19:08;5.95;;;2.72;;
65706;SDS011;52423;43.512;5.220;2022-07-21T15:21:35;3.17;;;2.65;;
65706;SDS011;52423;43.512;5.220;2022-07-21T15:24:01;3.30;;;2.97;;
65706;SDS011;52423;43.512;5.220;2022-07-21T15:26:27;5.43;;;2.50;;
65706;SDS011;52423;43.512;5.220;2022-07-21T15:28:53;7.25;;;3.00;;